sensor_id;sensor_type;location;lat;lon;timestamp;pressure;altitude;pressure_sealevel;temperature;humidity
62011;BME280;47967;51.756;10.174;2022-09-27T04:01:12;97488.97;;;11.86;83.72
62011;BME280;47967;51.756;10.174;2022-09-27T04:05:17;97485.69;;;11.74;84.29
62011;BME280;47967;51.756;10.174;2022-09-27T04:09:20;97483.56;;;11.76;84.40
62011;BME280;47967;51.756;10.174;2022-09-27T04:13:31;97485.19;;;11.77;84.27
62011;BME280;47967;51.756;10.174;2022-09-27T04:17:35;97481.09;;;11.69;84.51
62011;BME280;47967;51.756;10.174;2022-09-27T04:21:56;97479.16;;;11.64;84.40
62011;BME280;47967;51.756;10.174;2022-09-27T04:25:58;97474.59;;;11.60;84.29
62011;BME280;47967;51.756;10.174;2022-09-27T04:30:15;97471.88;;;11.60;84.49
62011;BME280;47967;51.756;10.174;2022-09-27T04:34:48;97475.38;;;11.60;84.48
62011;BME280;47967;51.756;10.174;2022-09-27T04:39:10;97478.66;;;11.73;84.24
62011;BME280;47967;51.756;10.174;2022-09-27T04:43:15;97476.53;;;11.80;84.09
62011;BME280;47967;51.756;10.174;2022-09-27T04:47:18;97477.91;;;11.82;83.47
62011;BME280;47967;51.756;10.174;2022-09-27T04:51:22;97477.66;;;11.89;83.43
62011;BME280;47967;51.756;10.174;2022-09-27T04:55:26;97480.88;;;11.91;83.36
62011;BME280;47967;51.756;10.174;2022-09-27T04:59:28;97481.16;;;11.90;83.93
62011;BME280;47967;51.756;10.174;2022-09-27T05:03:32;97482.00;;;11.95;83.54
62011;BME280;47967;51.756;10.174;2022-09-27T05:07:44;97488.00;;;12.03;83.41
62011;BME280;47967;51.756;10.174;2022-09-27T05:11:59;97497.66;;;11.93;83.00
62011;BME280;47967;51.756;10.174;2022-09-27T05:16:18;97495.47;;;11.85;83.13
62011;BME280;47967;51.756;10.174;2022-09-27T05:20:41;97499.75;;;11.76;81.46
62011;BME280;47967;51.756;10.174;2022-09-27T05:24:53;97516.63;;;11.45;81.59
62011;BME280;47967;51.756;10.174;2022-09-27T05:28:56;97515.50;;;11.41;82.43
62011;BME280;47967;51.756;10.174;2022-09-27T05:32:58;97529.53;;;11.38;82.52
62011;BME280;47967;51.756;10.174;2022-09-27T05:37:23;97524.47;;;11.47;82.44
62011;BME280;47967;51.756;10.174;2022-09-27T05:41:27;97525.94;;;11.22;83.51
62011;BME280;47967;51.756;10.174;2022-09-27T05:45:32;97536.31;;;11.41;83.54
62011;BME280;47967;51.756;10.174;2022-09-27T05:49:37;97539.47;;;11.27;82.86
62011;BME280;47967;51.756;10.174;2022-09-27T05:53:42;97548.91;;;10.92;82.62
62011;BME280;47967;51.756;10.174;2022-09-27T05:57:55;97555.97;;;10.98;83.66
62011;BME280;47967;51.756;10.174;2022-09-27T06:02:03;97565.56;;;10.84;83.80
62011;BME280;47967;51.756;10.174;2022-09-27T06:06:44;97565.31;;;10.85;84.60
62011;BME280;47967;51.756;10.174;2022-09-27T06:10:46;97574.97;;;10.81;84.60
62011;BME280;47967;51.756;10.174;2022-09-27T06:14:50;97571.81;;;10.89;84.48
62011;BME280;47967;51.756;10.174;2022-09-27T06:19:09;97582.97;;;10.98;84.77
62011;BME280;47967;51.756;10.174;2022-09-27T06:23:14;97592.28;;;11.18;84.82
62011;BME280;47967;51.756;10.174;2022-09-27T06:27:18;97588.13;;;11.37;83.68
62011;BME280;47967;51.756;10.174;2022-09-27T06:31:30;97587.44;;;11.52;83.19
62011;BME280;47967;51.756;10.174;2022-09-27T06:35:39;97590.66;;;11.54;82.69
62011;BME280;47967;51.756;10.174;2022-09-27T06:39:42;97597.78;;;11.66;83.11
62011;BME280;47967;51.756;10.174;2022-09-27T06:44:10;97604.81;;;11.67;83.17
62011;BME280;47967;51.756;10.174;2022-09-27T06:48:47;97609.66;;;11.65;83.26
62011;BME280;47967;51.756;10.174;2022-09-27T06:52:52;97605.25;;;11.53;83.19
62011;BME280;47967;51.756;10.174;2022-09-27T06:56:54;97610.66;;;11.53;83.27
62011;BME280;47967;51.756;10.174;2022-09-27T07:01:03;97626.31;;;11.57;82.89
62011;BME280;47967;51.756;10.174;2022-09-27T07:05:33;97620.34;;;11.49;82.92
62011;BME280;47967;51.756;10.174;2022-09-27T07:09:45;97632.66;;;11.78;82.00
62011;BME280;47967;51.756;10.174;2022-09-27T07:13:48;97649.41;;;11.75;80.73
62011;BME280;47967;51.756;10.174;2022-09-27T07:17:55;97648.06;;;11.72;80.03
62011;BME280;47967;51.756;10.174;2022-09-27T07:22:00;97657.06;;;11.88;79.20
62011;BME280;47967;51.756;10.174;2022-09-27T07:26:04;97661.00;;;12.13;79.06
62011;BME280;47967;51.756;10.174;2022-09-27T07:30:10;97671.34;;;12.21;77.83
62011;BME280;47967;51.756;10.174;2022-09-27T07:34:14;97667.19;;;12.08;78.94
62011;BME280;47967;51.756;10.174;2022-09-27T07:38:21;97672.31;;;12.05;78.19
62011;BME280;47967;51.756;10.174;2022-09-27T07:42:30;97675.72;;;11.90;77.87
62011;BME280;47967;51.756;10.174;2022-09-27T07:46:32;97676.47;;;11.85;78.19
62011;BME280;47967;51.756;10.174;2022-09-27T07:50:51;97689.06;;;11.69;77.58
62011;BME280;47967;51.756;10.174;2022-09-27T07:55:14;97691.44;;;11.60;77.97
62011;BME280;47967;51.756;10.174;2022-09-27T07:59:29;97698.34;;;11.78;77.36
62011;BME280;47967;51.756;10.174;2022-09-27T08:03:32;97700.28;;;11.88;77.23
62011;BME280;47967;51.756;10.174;2022-09-27T08:07:35;97703.81;;;11.89;77.35
62011;BME280;47967;51.756;10.174;2022-09-27T08:11:41;97711.19;;;11.98;77.25
62011;BME280;47967;51.756;10.174;2022-09-27T08:15:46;97720.75;;;12.11;76.68
62011;BME280;47967;51.756;10.174;2022-09-27T08:19:49;97727.34;;;11.93;76.04
62011;BME280;47967;51.756;10.174;2022-09-27T08:24:11;97731.31;;;12.18;76.78
62011;BME280;47967;51.756;10.174;2022-09-27T08:28:33;97731.03;;;12.62;75.79
62011;BME280;47967;51.756;10.174;2022-09-27T08:32:54;97743.97;;;12.55;75.07
62011;BME280;47967;51.756;10.174;2022-09-27T08:36:58;97744.06;;;12.71;73.86
62011;BME280;47967;51.756;10.174;2022-09-27T08:41:04;97749.03;;;13.05;72.90
62011;BME280;47967;51.756;10.174;2022-09-27T08:45:15;97753.41;;;13.26;71.40
62011;BME280;47967;51.756;10.174;2022-09-27T08:49:23;97755.00;;;13.12;69.82
62011;BME280;47967;51.756;10.174;2022-09-27T08:53:32;97772.59;;;13.04;71.22
62011;BME280;47967;51.756;10.174;2022-09-27T08:57:38;97763.19;;;13.33;70.23
62011;BME280;47967;51.756;10.174;2022-09-27T09:01:42;97765.09;;;13.32;70.60
62011;BME280;47967;51.756;10.174;2022-09-27T09:06:01;97767.59;;;13.80;68.15
62011;BME280;47967;51.756;10.174;2022-09-27T09:10:18;97779.53;;;13.89;67.06
62011;BME280;47967;51.756;10.174;2022-09-27T09:14:49;97778.69;;;13.48;68.61
62011;BME280;47967;51.756;10.174;2022-09-27T09:19:08;97788.63;;;13.32;68.66
62011;BME280;47967;51.756;10.174;2022-09-27T09:28:27;97798.50;;;12.85;67.76
62011;BME280;47967;51.756;10.174;2022-09-27T09:32:42;97801.81;;;13.02;67.64
62011;BME280;47967;51.756;10.174;2022-09-27T09:36:53;97796.44;;;13.07;65.34
62011;BME280;47967;51.756;10.174;2022-09-27T09:41:01;97797.03;;;13.35;65.54
62011;BME280;47967;51.756;10.174;2022-09-27T09:45:13;97796.75;;;13.21;66.26
62011;BME280;47967;51.756;10.174;2022-09-27T09:49:22;97794.44;;;13.66;64.50
62011;BME280;47967;51.756;10.174;2022-09-27T09:53:37;97810.16;;;13.95;63.87
62011;BME280;47967;51.756;10.174;2022-09-27T09:57:51;97799.59;;;13.93;64.25
62011;BME280;47967;51.756;10.174;2022-09-27T10:02:14;97797.16;;;13.97;64.15
62011;BME280;47967;51.756;10.174;2022-09-27T10:06:21;97797.16;;;13.76;64.74
62011;BME280;47967;51.756;10.174;2022-09-27T10:10:26;97788.75;;;14.04;64.16
62011;BME280;47967;51.756;10.174;2022-09-27T10:14:58;97804.75;;;14.11;63.85
62011;BME280;47967;51.756;10.174;2022-09-27T10:19:03;97805.28;;;14.02;63.34
62011;BME280;47967;51.756;10.174;2022-09-27T10:23:12;97805.00;;;14.19;65.47
62011;BME280;47967;51.756;10.174;2022-09-27T10:27:39;97824.53;;;13.75;68.91
62011;BME280;47967;51.756;10.174;2022-09-27T10:31:44;97807.13;;;12.81;71.72
62011;BME280;47967;51.756;10.174;2022-09-27T10:35:51;97811.34;;;13.20;70.84
62011;BME280;47967;51.756;10.174;2022-09-27T10:39:58;97808.78;;;13.72;71.32
62011;BME280;47967;51.756;10.174;2022-09-27T10:44:19;97807.19;;;13.86;69.00
62011;BME280;47967;51.756;10.174;2022-09-27T10:48:35;97809.63;;;14.08;68.53
62011;BME280;47967;51.756;10.174;2022-09-27T10:52:38;97809.63;;;13.98;67.45
62011;BME280;47967;51.756;10.174;2022-09-27T10:56:40;97802.56;;;13.71;67.41
62011;BME280;47967;51.756;10.174;2022-09-27T11:00:53;97806.59;;;13.38;67.24
62011;BME280;47967;51.756;10.174;2022-09-27T11:05:07;97804.28;;;13.09;67.59
62011;BME280;47967;51.756;10.174;2022-09-27T11:09:22;97811.13;;;13.32;67.84
62011;BME280;47967;51.756;10.174;2022-09-27T11:13:28;97810.44;;;13.93;66.43
62011;BME280;47967;51.756;10.174;2022-09-27T11:17:44;97799.59;;;14.09;64.64
62011;BME280;47967;51.756;10.174;2022-09-27T11:21:55;97803.88;;;14.46;63.11
62011;BME280;47967;51.756;10.174;2022-09-27T11:26:08;97810.41;;;14.71;61.95
62011;BME280;47967;51.756;10.174;2022-09-27T11:30:18;97812.28;;;14.70;60.97
62011;BME280;47967;51.756;10.174;2022-09-27T11:34:47;97813.72;;;15.23;60.75
62011;BME280;47967;51.756;10.174;2022-09-27T11:39:02;97820.06;;;15.03;58.62
62011;BME280;47967;51.756;10.174;2022-09-27T11:43:21;97824.66;;;15.02;58.40
62011;BME280;47967;51.756;10.174;2022-09-27T11:47:35;97815.41;;;15.14;56.59
62011;BME280;47967;51.756;10.174;2022-09-27T11:51:58;97802.34;;;15.66;57.70
62011;BME280;47967;51.756;10.174;2022-09-27T11:56:10;97807.97;;;15.35;56.07
62011;BME280;47967;51.756;10.174;2022-09-27T12:00:21;97817.25;;;15.24;54.70
62011;BME280;47967;51.756;10.174;2022-09-27T12:04:49;97805.13;;;15.56;56.25
62011;BME280;47967;51.756;10.174;2022-09-27T12:09:02;97800.88;;;15.39;56.62
62011;BME280;47967;51.756;10.174;2022-09-27T12:13:09;97810.34;;;14.86;57.68
62011;BME280;47967;51.756;10.174;2022-09-27T12:17:19;97817.63;;;14.96;56.47
62011;BME280;47967;51.756;10.174;2022-09-27T12:21:25;97807.94;;;14.49;57.45
62011;BME280;47967;51.756;10.174;2022-09-27T12:25:34;97830.50;;;14.18;60.09
62011;BME280;47967;51.756;10.174;2022-09-27T12:29:47;97837.28;;;13.74;63.22
62011;BME280;47967;51.756;10.174;2022-09-27T12:33:58;97853.06;;;12.66;65.42
62011;BME280;47967;51.756;10.174;2022-09-27T12:38:08;97865.25;;;12.31;65.79
62011;BME280;47967;51.756;10.174;2022-09-27T12:42:18;97865.00;;;12.00;66.64
62011;BME280;47967;51.756;10.174;2022-09-27T12:46:29;97868.69;;;12.21;68.61
62011;BME280;47967;51.756;10.174;2022-09-27T12:50:41;97868.72;;;12.26;68.74
62011;BME280;47967;51.756;10.174;2022-09-27T12:54:59;97869.31;;;12.71;67.67
62011;BME280;47967;51.756;10.174;2022-09-27T12:59:20;97862.72;;;13.05;67.41
62011;BME280;47967;51.756;10.174;2022-09-27T13:03:33;97870.19;;;12.82;66.52
62011;BME280;47967;51.756;10.174;2022-09-27T13:07:54;97881.78;;;12.72;67.11
62011;BME280;47967;51.756;10.174;2022-09-27T13:12:06;97863.00;;;12.55;69.52
62011;BME280;47967;51.756;10.174;2022-09-27T13:16:14;97869.81;;;13.11;69.08
62011;BME280;47967;51.756;10.174;2022-09-27T13:20:48;97866.47;;;13.52;67.40
62011;BME280;47967;51.756;10.174;2022-09-27T13:25:46;97870.59;;;13.06;67.15
62011;BME280;47967;51.756;10.174;2022-09-27T13:34:52;97872.22;;;13.81;65.71
62011;BME280;47967;51.756;10.174;2022-09-27T13:39:16;97869.47;;;13.66;65.47
62011;BME280;47967;51.756;10.174;2022-09-27T13:43:55;97866.75;;;13.60;65.06
62011;BME280;47967;51.756;10.174;2022-09-27T13:48:15;97877.00;;;13.43;65.63
62011;BME280;47967;51.756;10.174;2022-09-27T13:52:25;97867.38;;;13.88;64.82
62011;BME280;47967;51.756;10.174;2022-09-27T13:56:52;97877.72;;;14.22;64.72
62011;BME280;47967;51.756;10.174;2022-09-27T14:00:59;97875.81;;;14.38;63.53
62011;BME280;47967;51.756;10.174;2022-09-27T14:05:03;97874.72;;;14.70;62.09
62011;BME280;47967;51.756;10.174;2022-09-27T14:09:17;97867.34;;;14.86;62.29
62011;BME280;47967;51.756;10.174;2022-09-27T14:13:28;97871.44;;;14.63;61.71
62011;BME280;47967;51.756;10.174;2022-09-27T14:17:39;97870.66;;;14.37;63.55
62011;BME280;47967;51.756;10.174;2022-09-27T14:21:47;97874.16;;;14.37;63.16
62011;BME280;47967;51.756;10.174;2022-09-27T14:25:54;97884.41;;;15.02;61.49
62011;BME280;47967;51.756;10.174;2022-09-27T14:30:08;97874.69;;;14.76;61.79
62011;BME280;47967;51.756;10.174;2022-09-27T14:34:12;97865.75;;;14.49;62.52
62011;BME280;47967;51.756;10.174;2022-09-27T14:38:20;97876.06;;;14.32;62.83
62011;BME280;47967;51.756;10.174;2022-09-27T14:42:57;97885.25;;;13.89;64.78
62011;BME280;47967;51.756;10.174;2022-09-27T14:47:07;97883.63;;;13.93;65.38
62011;BME280;47967;51.756;10.174;2022-09-27T14:51:19;97878.44;;;13.66;65.82
62011;BME280;47967;51.756;10.174;2022-09-27T14:55:23;97882.16;;;13.50;65.81
62011;BME280;47967;51.756;10.174;2022-09-27T14:59:29;97877.00;;;13.43;65.79
62011;BME280;47967;51.756;10.174;2022-09-27T15:03:34;97880.91;;;13.78;65.28
62011;BME280;47967;51.756;10.174;2022-09-27T15:07:46;97879.59;;;14.06;64.79
62011;BME280;47967;51.756;10.174;2022-09-27T15:11:52;97869.03;;;14.10;63.52
62011;BME280;47967;51.756;10.174;2022-09-27T15:15:58;97872.00;;;14.08;64.21
62011;BME280;47967;51.756;10.174;2022-09-27T15:20:16;97875.22;;;13.85;64.74
62011;BME280;47967;51.756;10.174;2022-09-27T15:24:37;97878.16;;;13.68;64.71
62011;BME280;47967;51.756;10.174;2022-09-27T15:28:45;97878.09;;;13.52;67.02
62011;BME280;47967;51.756;10.174;2022-09-27T15:32:52;97879.13;;;13.36;65.71
62011;BME280;47967;51.756;10.174;2022-09-27T15:36:57;97874.22;;;13.33;64.93
62011;BME280;47967;51.756;10.174;2022-09-27T15:41:04;97878.78;;;13.22;66.18
62011;BME280;47967;51.756;10.174;2022-09-27T15:45:26;97878.00;;;13.26;65.83
62011;BME280;47967;51.756;10.174;2022-09-27T15:49:31;97879.81;;;13.10;65.59
62011;BME280;47967;51.756;10.174;2022-09-27T15:53:43;97887.03;;;12.94;65.58
62011;BME280;47967;51.756;10.174;2022-09-27T15:57:49;97887.47;;;12.76;66.14
62011;BME280;47967;51.756;10.174;2022-09-27T16:01:55;97891.75;;;12.72;65.46
62011;BME280;47967;51.756;10.174;2022-09-27T16:06:01;97895.19;;;12.57;67.11
62011;BME280;47967;51.756;10.174;2022-09-27T16:10:09;97895.81;;;12.69;66.29
62011;BME280;47967;51.756;10.174;2022-09-27T16:14:15;97904.66;;;12.59;67.21
62011;BME280;47967;51.756;10.174;2022-09-27T16:18:18;97910.31;;;12.53;67.48
62011;BME280;47967;51.756;10.174;2022-09-27T16:22:22;97918.66;;;12.51;68.96
62011;BME280;47967;51.756;10.174;2022-09-27T16:26:25;97906.44;;;12.43;68.96
62011;BME280;47967;51.756;10.174;2022-09-27T16:30:28;97910.34;;;12.25;70.00
62011;BME280;47967;51.756;10.174;2022-09-27T16:34:31;97909.41;;;12.09;70.30
62011;BME280;47967;51.756;10.174;2022-09-27T16:38:35;97912.94;;;11.88;71.79
62011;BME280;47967;51.756;10.174;2022-09-27T16:42:38;97918.84;;;11.84;72.96
62011;BME280;47967;51.756;10.174;2022-09-27T16:46:42;97919.00;;;11.73;73.00
62011;BME280;47967;51.756;10.174;2022-09-27T16:50:46;97914.88;;;11.65;73.65
62011;BME280;47967;51.756;10.174;2022-09-27T16:55:08;97919.66;;;11.58;74.14
62011;BME280;47967;51.756;10.174;2022-09-27T16:59:11;97918.00;;;11.57;73.82
62011;BME280;47967;51.756;10.174;2022-09-27T17:03:14;97923.97;;;11.59;74.69
62011;BME280;47967;51.756;10.174;2022-09-27T17:07:16;97926.63;;;11.53;74.92
62011;BME280;47967;51.756;10.174;2022-09-27T17:11:20;97918.84;;;11.57;74.29
62011;BME280;47967;51.756;10.174;2022-09-27T17:15:23;97919.91;;;11.56;74.04
62011;BME280;47967;51.756;10.174;2022-09-27T17:19:26;97922.66;;;11.39;74.20
62011;BME280;47967;51.756;10.174;2022-09-27T17:23:29;97919.34;;;11.32;74.94
62011;BME280;47967;51.756;10.174;2022-09-27T17:27:33;97917.97;;;11.29;75.05
62011;BME280;47967;51.756;10.174;2022-09-27T17:31:37;97928.19;;;11.27;76.03
62011;BME280;47967;51.756;10.174;2022-09-27T17:35:40;97931.09;;;11.20;75.97
62011;BME280;47967;51.756;10.174;2022-09-27T17:39:44;97934.03;;;11.02;76.18
62011;BME280;47967;51.756;10.174;2022-09-27T17:43:51;97930.22;;;10.98;76.97
62011;BME280;47967;51.756;10.174;2022-09-27T17:47:55;97936.41;;;10.98;77.16
62011;BME280;47967;51.756;10.174;2022-09-27T17:52:15;97937.41;;;10.92;77.41
62011;BME280;47967;51.756;10.174;2022-09-27T17:56:18;97942.25;;;10.90;77.38
62011;BME280;47967;51.756;10.174;2022-09-27T18:00:22;97940.13;;;10.92;77.79
62011;BME280;47967;51.756;10.174;2022-09-27T18:04:24;97936.09;;;10.95;78.14
62011;BME280;47967;51.756;10.174;2022-09-27T18:08:27;97940.94;;;10.93;77.40
62011;BME280;47967;51.756;10.174;2022-09-27T18:12:30;97940.94;;;10.93;77.59
62011;BME280;47967;51.756;10.174;2022-09-27T18:16:35;97940.47;;;10.79;78.02
62011;BME280;47967;51.756;10.174;2022-09-27T18:20:39;97933.94;;;10.75;77.77
62011;BME280;47967;51.756;10.174;2022-09-27T18:24:42;97938.16;;;10.70;78.13
62011;BME280;47967;51.756;10.174;2022-09-27T18:28:44;97929.84;;;10.55;78.53
62011;BME280;47967;51.756;10.174;2022-09-27T18:32:48;97943.66;;;10.59;78.62
62011;BME280;47967;51.756;10.174;2022-09-27T18:36:51;97941.84;;;10.64;78.25
62011;BME280;47967;51.756;10.174;2022-09-27T18:40:54;97941.50;;;10.78;77.93
62011;BME280;47967;51.756;10.174;2022-09-27T18:44:58;97945.63;;;10.80;77.05
62011;BME280;47967;51.756;10.174;2022-09-27T18:49:02;97939.97;;;10.82;77.51
62011;BME280;47967;51.756;10.174;2022-09-27T18:53:05;97950.34;;;10.90;77.70
62011;BME280;47967;51.756;10.174;2022-09-27T18:57:08;97946.41;;;10.98;77.82
62011;BME280;47967;51.756;10.174;2022-09-27T19:01:12;97946.66;;;10.96;77.86
62011;BME280;47967;51.756;10.174;2022-09-27T19:05:17;97953.13;;;10.95;78.14
62011;BME280;47967;51.756;10.174;2022-09-27T19:09:20;97948.28;;;10.97;77.41
62011;BME280;47967;51.756;10.174;2022-09-27T19:13:22;97950.00;;;11.03;77.46
62011;BME280;47967;51.756;10.174;2022-09-27T19:17:31;97956.94;;;10.99;77.26
62011;BME280;47967;51.756;10.174;2022-09-27T19:21:35;97956.28;;;11.09;76.93
62011;BME280;47967;51.756;10.174;2022-09-27T19:25:38;97963.25;;;11.05;77.21
62011;BME280;47967;51.756;10.174;2022-09-27T19:29:40;97961.59;;;11.04;77.23
62011;BME280;47967;51.756;10.174;2022-09-27T19:33:43;97962.59;;;10.98;77.31
62011;BME280;47967;51.756;10.174;2022-09-27T19:37:47;97964.56;;;11.02;77.08
62011;BME280;47967;51.756;10.174;2022-09-27T19:41:50;97953.66;;;10.97;77.14
62011;BME280;47967;51.756;10.174;2022-09-27T19:45:53;97964.25;;;10.99;77.48
62011;BME280;47967;51.756;10.174;2022-09-27T19:49:55;97962.41;;;11.04;77.02
62011;BME280;47967;51.756;10.174;2022-09-27T19:53:59;97958.59;;;11.00;77.34
62011;BME280;47967;51.756;10.174;2022-09-27T19:58:02;97955.25;;;10.93;77.37
62011;BME280;47967;51.756;10.174;2022-09-27T20:02:04;97959.00;;;10.92;77.48
62011;BME280;47967;51.756;10.174;2022-09-27T20:06:09;97964.91;;;10.89;77.36
62011;BME280;47967;51.756;10.174;2022-09-27T20:10:13;97951.09;;;10.85;77.52
62011;BME280;47967;51.756;10.174;2022-09-27T20:14:16;97947.16;;;10.76;77.73
62011;BME280;47967;51.756;10.174;2022-09-27T20:18:18;97953.28;;;10.71;78.27
62011;BME280;47967;51.756;10.174;2022-09-27T20:22:21;97958.88;;;10.65;78.38
62011;BME280;47967;51.756;10.174;2022-09-27T20:26:27;97959.59;;;10.60;78.51
62011;BME280;47967;51.756;10.174;2022-09-27T20:30:30;97952.00;;;10.57;78.73
62011;BME280;47967;51.756;10.174;2022-09-27T20:34:33;97957.47;;;10.62;78.87
62011;BME280;47967;51.756;10.174;2022-09-27T20:38:35;97963.59;;;10.57;78.90
62011;BME280;47967;51.756;10.174;2022-09-27T20:42:39;97956.81;;;10.55;78.65
62011;BME280;47967;51.756;10.174;2022-09-27T20:46:42;97961.72;;;10.58;79.13
62011;BME280;47967;51.756;10.174;2022-09-27T20:50:45;97951.69;;;10.53;78.81
62011;BME280;47967;51.756;10.174;2022-09-27T20:54:48;97956.50;;;10.51;79.11
62011;BME280;47967;51.756;10.174;2022-09-27T20:58:53;97950.91;;;10.58;79.27
